Terminal Aerodrome Forecast
Issued by NWS

Home | Current Version | Previous Version | Text Only | Print | Product List | Glossary On
Versions: 1 2 3 4 5 6 7 8 9 10 11 12 13 14 15 16 17 18
430
FTUS44 KLZK 060006 AAA
TAFADF
TAF AMD
KADF 060006Z 0600/0624 05006KT P6SM VCSH BKN008 OVC012
      TEMPO 0600/0602 1SM -DZRA BR OVC005
     FM060200 VRB05KT 2SM -RA BR VCTS BKN008 OVC015CB
      TEMPO 0602/0606 1SM SHRA BR OVC004
     FM060700 30007KT 3SM BR VCSH OVC005
     FM061100 33007KT 4SM -DZ BR OVC015
     FM061900 35007KT P6SM SCT015 OVC250=

USA.gov is the U.S. government's official web portal to all federal, state and local government web resources and services.